Time,TemperatureF,DewpointF,PressureIn,WindDirection,WindDirectionDegrees,WindSpeedMPH,WindSpeedGustMPH,Humidity,HourlyPrecipIn,Conditions,Clouds,dailyrainin,SoftwareType,DateUTC
2013-07-30 00:04:00,60.1,53.3,29.96,North,0,0.0,0.0,78,0.00,,,0.00,WUHU216HW,2013-07-30 07:04:00,
2013-07-30 00:09:00,59.8,52.9,29.96,North,0,0.0,0.0,78,0.00,,,0.00,WUHU216HW,2013-07-30 07:09:00,
2013-07-30 00:14:00,59.8,52.9,29.96,North,0,0.0,0.0,78,0.00,,,0.00,WUHU216HW,2013-07-30 07:14:00,
2013-07-30 00:19:00,59.6,52.7,29.96,North,0,0.0,0.0,78,0.00,,,0.00,WUHU216HW,2013-07-30 07:19:00,
2013-07-30 00:24:00,59.4,52.6,29.96,North,0,0.0,0.0,78,0.00,,,0.00,WUHU216HW,2013-07-30 07:24:00,
2013-07-30 00:29:00,59.2,52.7,29.96,North,0,0.0,0.0,79,0.00,,,0.00,WUHU216HW,2013-07-30 07:29:00,
2013-07-30 00:34:00,59.2,52.7,29.96,North,0,0.0,0.0,79,0.00,,,0.00,WUHU216HW,2013-07-30 07:34:00,
2013-07-30 00:39:00,59.2,52.7,29.96,North,0,0.0,0.0,79,0.00,,,0.00,WUHU216HW,2013-07-30 07:39:00,
2013-07-30 00:44:00,59.0,52.6,29.96,North,0,0.0,0.0,79,0.00,,,0.00,WUHU216HW,2013-07-30 07:44:00,
2013-07-30 00:49:00,58.9,52.4,29.96,North,0,0.0,0.0,79,0.00,,,0.00,WUHU216HW,2013-07-30 07:49:00,
2013-07-30 00:54:00,58.7,52.2,29.97,North,0,0.0,0.0,79,0.00,,,0.00,WUHU216HW,2013-07-30 07:54:00,
2013-07-30 00:59:00,58.5,52.0,29.97,North,0,0.0,0.0,79,0.00,,,0.00,WUHU216HW,2013-07-30 07:59:00,
2013-07-30 01:04:00,58.3,51.8,29.97,North,0,0.0,0.0,79,0.00,,,0.00,WUHU216HW,2013-07-30 08:04:00,
2013-07-30 01:09:00,58.3,51.8,29.97,North,0,0.0,0.0,79,0.00,,,0.00,WUHU216HW,2013-07-30 08:09:00,
2013-07-30 01:14:00,58.3,51.8,29.97,North,0,0.0,0.0,79,0.00,,,0.00,WUHU216HW,2013-07-30 08:14:00,
2013-07-30 01:19:00,58.3,51.8,29.97,North,0,0.0,0.0,79,0.00,,,0.00,WUHU216HW,2013-07-30 08:19:00,
2013-07-30 01:24:00,58.1,51.7,29.97,North,0,0.0,0.0,79,0.00,,,0.00,WUHU216HW,2013-07-30 08:24:00,
2013-07-30 01:29:00,58.1,51.7,29.97,North,0,0.0,0.0,79,0.00,,,0.00,WUHU216HW,2013-07-30 08:29:00,
2013-07-30 01:34:00,58.0,51.5,29.97,North,0,0.0,0.0,79,0.00,,,0.00,WUHU216HW,2013-07-30 08:34:00,
2013-07-30 01:39:00,58.0,51.8,29.97,North,0,0.0,0.0,80,0.00,,,0.00,WUHU216HW,2013-07-30 08:39:00,
2013-07-30 01:44:00,57.8,51.7,29.97,North,0,0.0,0.0,80,0.00,,,0.00,WUHU216HW,2013-07-30 08:44:00,
2013-07-30 01:49:00,57.8,51.7,29.97,North,0,0.0,0.0,80,0.00,,,0.00,WUHU216HW,2013-07-30 08:49:00,
2013-07-30 01:54:00,57.6,51.5,29.97,North,0,0.0,0.0,80,0.00,,,0.00,WUHU216HW,2013-07-30 08:54:00,
2013-07-30 01:59:00,57.4,51.3,29.97,North,0,0.0,0.0,80,0.00,,,0.00,WUHU216HW,2013-07-30 08:59:00,
2013-07-30 02:04:00,57.4,51.3,29.97,North,0,0.0,0.0,80,0.00,,,0.00,WUHU216HW,2013-07-30 09:04:00,
2013-07-30 02:09:00,57.2,51.1,29.98,North,0,0.0,0.0,80,0.00,,,0.00,WUHU216HW,2013-07-30 09:09:00,
2013-07-30 02:14:00,57.2,51.1,29.97,North,0,0.0,0.0,80,0.00,,,0.00,WUHU216HW,2013-07-30 09:14:00,
2013-07-30 02:19:00,57.2,51.5,29.98,North,0,0.0,0.0,81,0.00,,,0.00,WUHU216HW,2013-07-30 09:19:00,
2013-07-30 02:24:00,56.9,51.1,29.98,North,0,0.0,0.0,81,0.00,,,0.00,WUHU216HW,2013-07-30 09:24:00,
2013-07-30 02:29:00,56.9,51.1,29.98,North,0,0.0,0.0,81,0.00,,,0.00,WUHU216HW,2013-07-30 09:29:00,
2013-07-30 02:34:00,56.7,51.0,29.98,North,0,0.0,0.0,81,0.00,,,0.00,WUHU216HW,2013-07-30 09:34:00,
2013-07-30 02:39:00,56.7,51.0,29.98,North,0,0.0,0.0,81,0.00,,,0.00,WUHU216HW,2013-07-30 09:39:00,
2013-07-30 02:44:00,56.5,50.8,29.98,North,0,0.0,0.0,81,0.00,,,0.00,WUHU216HW,2013-07-30 09:44:00,
2013-07-30 02:49:00,56.5,50.8,29.99,North,0,0.0,0.0,81,0.00,,,0.00,WUHU216HW,2013-07-30 09:49:00,
2013-07-30 02:54:00,56.5,50.8,29.98,North,0,0.0,0.0,81,0.00,,,0.00,WUHU216HW,2013-07-30 09:54:00,
2013-07-30 02:59:00,56.3,50.6,29.98,North,0,0.0,0.0,81,0.00,,,0.00,WUHU216HW,2013-07-30 09:59:00,
2013-07-30 03:04:00,56.2,50.4,29.98,North,0,0.0,0.0,81,0.00,,,0.00,WUHU216HW,2013-07-30 10:04:00,
2013-07-30 03:09:00,56.2,50.4,29.98,North,0,0.0,0.0,81,0.00,,,0.00,WUHU216HW,2013-07-30 10:09:00,
2013-07-30 03:14:00,56.2,50.4,29.98,North,0,0.0,0.0,81,0.00,,,0.00,WUHU216HW,2013-07-30 10:14:00,
2013-07-30 03:19:00,56.2,50.4,29.98,North,0,0.0,0.0,81,0.00,,,0.00,WUHU216HW,2013-07-30 10:19:00,
2013-07-30 03:24:00,56.0,50.2,29.99,North,0,0.0,0.0,81,0.00,,,0.00,WUHU216HW,2013-07-30 10:24:00,
2013-07-30 03:29:00,56.0,50.2,29.98,North,0,0.0,0.0,81,0.00,,,0.00,WUHU216HW,2013-07-30 10:29:00,
2013-07-30 03:34:00,55.8,50.1,29.99,North,0,0.0,0.0,81,0.00,,,0.00,WUHU216HW,2013-07-30 10:34:00,
2013-07-30 03:39:00,55.8,50.1,29.98,North,0,0.0,0.0,81,0.00,,,0.00,WUHU216HW,2013-07-30 10:39:00,
2013-07-30 03:44:00,55.8,50.1,29.99,North,0,0.0,0.0,81,0.00,,,0.00,WUHU216HW,2013-07-30 10:44:00,
2013-07-30 03:49:00,55.8,50.1,29.99,North,0,0.0,0.0,81,0.00,,,0.00,WUHU216HW,2013-07-30 10:49:00,
2013-07-30 03:54:00,55.6,49.9,29.99,North,0,0.0,0.0,81,0.00,,,0.00,WUHU216HW,2013-07-30 10:54:00,
2013-07-30 03:59:00,55.6,49.9,29.99,North,0,0.0,0.0,81,0.00,,,0.00,WUHU216HW,2013-07-30 10:59:00,
2013-07-30 04:04:00,55.4,49.7,29.99,North,0,0.0,0.0,81,0.00,,,0.00,WUHU216HW,2013-07-30 11:04:00,
2013-07-30 04:09:00,55.3,49.5,29.99,North,0,0.0,0.0,81,0.00,,,0.00,WUHU216HW,2013-07-30 11:09:00,
2013-07-30 04:14:00,55.3,49.5,29.99,North,0,0.0,0.0,81,0.00,,,0.00,WUHU216HW,2013-07-30 11:14:00,
2013-07-30 04:19:00,55.1,49.3,29.99,North,0,0.0,0.0,81,0.00,,,0.00,WUHU216HW,2013-07-30 11:19:00,
2013-07-30 04:24:00,55.1,49.7,29.99,North,0,0.0,0.0,82,0.00,,,0.00,WUHU216HW,2013-07-30 11:24:00,
2013-07-30 04:29:00,55.1,49.7,30.00,North,0,0.0,0.0,82,0.00,,,0.00,WUHU216HW,2013-07-30 11:29:00,
2013-07-30 04:34:00,54.9,49.5,30.00,North,0,0.0,0.0,82,0.00,,,0.00,WUHU216HW,2013-07-30 11:34:00,
2013-07-30 04:39:00,54.7,49.3,30.00,North,0,0.0,0.0,82,0.00,,,0.00,WUHU216HW,2013-07-30 11:39:00,
2013-07-30 04:44:00,54.7,49.3,30.00,North,0,0.0,0.0,82,0.00,,,0.00,WUHU216HW,2013-07-30 11:44:00,
2013-07-30 04:49:00,54.5,49.1,30.00,North,0,0.0,0.0,82,0.00,,,0.00,WUHU216HW,2013-07-30 11:49:00,
2013-07-30 04:54:00,54.0,48.6,30.00,North,0,0.0,0.0,82,0.00,,,0.00,WUHU216HW,2013-07-30 11:54:00,
2013-07-30 04:59:00,54.0,48.6,30.00,North,0,0.0,0.0,82,0.00,,,0.00,WUHU216HW,2013-07-30 11:59:00,
2013-07-30 05:04:00,54.2,48.8,30.00,North,0,0.0,0.0,82,0.00,,,0.00,WUHU216HW,2013-07-30 12:04:00,
2013-07-30 05:09:00,54.2,49.2,30.00,North,0,0.0,0.0,83,0.00,,,0.00,WUHU216HW,2013-07-30 12:09:00,
2013-07-30 05:14:00,54.2,49.2,30.00,North,0,0.0,0.0,83,0.00,,,0.00,WUHU216HW,2013-07-30 12:14:00,
2013-07-30 05:19:00,54.2,49.2,30.00,North,0,0.0,0.0,83,0.00,,,0.00,WUHU216HW,2013-07-30 12:19:00,
2013-07-30 05:24:00,54.2,49.2,30.01,North,0,0.0,0.0,83,0.00,,,0.00,WUHU216HW,2013-07-30 12:24:00,
2013-07-30 05:29:00,54.4,49.3,30.01,North,0,0.0,0.0,83,0.00,,,0.00,WUHU216HW,2013-07-30 12:29:00,
2013-07-30 05:34:00,54.2,49.4,30.01,North,0,0.0,0.0,84,0.00,,,0.00,WUHU216HW,2013-07-30 12:34:00,
2013-07-30 05:39:00,54.2,49.4,30.01,North,0,0.0,0.0,84,0.00,,,0.00,WUHU216HW,2013-07-30 12:39:00,
2013-07-30 05:44:00,54.0,49.2,30.01,North,0,0.0,0.0,84,0.00,,,0.00,WUHU216HW,2013-07-30 12:44:00,
2013-07-30 05:49:00,54.2,49.4,30.02,North,0,0.0,0.0,84,0.00,,,0.00,WUHU216HW,2013-07-30 12:49:00,
2013-07-30 05:54:00,54.4,49.6,30.02,North,0,0.0,0.0,84,0.00,,,0.00,WUHU216HW,2013-07-30 12:54:00,
2013-07-30 05:59:00,54.2,49.4,30.02,North,0,0.0,0.0,84,0.00,,,0.00,WUHU216HW,2013-07-30 12:59:00,
2013-07-30 06:04:00,54.2,49.4,30.03,North,0,0.0,0.0,84,0.00,,,0.00,WUHU216HW,2013-07-30 13:04:00,
2013-07-30 06:09:00,54.2,49.4,30.03,North,0,0.0,0.0,84,0.00,,,0.00,WUHU216HW,2013-07-30 13:09:00,
2013-07-30 06:14:00,54.4,49.6,30.03,North,0,0.0,0.0,84,0.00,,,0.00,WUHU216HW,2013-07-30 13:14:00,
2013-07-30 06:19:00,54.4,49.6,30.03,North,0,0.0,0.0,84,0.00,,,0.00,WUHU216HW,2013-07-30 13:19:00,
2013-07-30 06:24:00,54.5,49.8,30.04,North,0,0.0,0.0,84,0.00,,,0.00,WUHU216HW,2013-07-30 13:24:00,
2013-07-30 06:29:00,54.7,50.2,30.04,North,0,0.0,0.0,85,0.00,,,0.00,WUHU216HW,2013-07-30 13:29:00,
2013-07-30 06:34:00,54.9,50.8,30.04,North,0,0.0,0.0,86,0.00,,,0.00,WUHU216HW,2013-07-30 13:34:00,
2013-07-30 06:39:00,55.1,51.0,30.04,North,0,0.0,0.0,86,0.00,,,0.00,WUHU216HW,2013-07-30 13:39:00,
2013-07-30 06:44:00,55.3,51.1,30.04,North,0,0.0,0.0,86,0.00,,,0.00,WUHU216HW,2013-07-30 13:44:00,
2013-07-30 06:49:00,55.4,51.6,30.04,North,0,0.0,0.0,87,0.00,,,0.00,WUHU216HW,2013-07-30 13:49:00,
2013-07-30 06:54:00,55.4,51.6,30.04,North,0,0.0,0.0,87,0.00,,,0.00,WUHU216HW,2013-07-30 13:54:00,
2013-07-30 06:59:00,55.6,51.5,30.04,North,0,0.0,0.0,86,0.00,,,0.00,WUHU216HW,2013-07-30 13:59:00,
2013-07-30 07:04:00,55.8,51.9,30.05,North,0,0.0,0.0,87,0.00,,,0.00,WUHU216HW,2013-07-30 14:04:00,
2013-07-30 07:09:00,56.0,52.1,30.05,North,0,0.0,0.0,87,0.00,,,0.00,WUHU216HW,2013-07-30 14:09:00,
2013-07-30 07:14:00,56.0,51.9,30.05,North,0,0.0,0.0,86,0.00,,,0.00,WUHU216HW,2013-07-30 14:14:00,
2013-07-30 07:19:00,56.2,52.0,30.05,North,0,0.0,0.0,86,0.00,,,0.00,WUHU216HW,2013-07-30 14:19:00,
2013-07-30 07:24:00,56.3,52.2,30.05,North,0,0.0,0.0,86,0.00,,,0.00,WUHU216HW,2013-07-30 14:24:00,
2013-07-30 07:29:00,56.5,52.4,30.05,North,0,0.0,0.0,86,0.00,,,0.00,WUHU216HW,2013-07-30 14:29:00,
2013-07-30 07:41:00,56.7,52.6,30.06,North,0,0.0,0.0,86,0.00,,,0.00,WUHU216HW,2013-07-30 14:41:00,
2013-07-30 07:46:00,56.5,53.0,30.06,North,0,0.0,0.0,88,0.00,,,0.00,WUHU216HW,2013-07-30 14:46:00,
2013-07-30 07:51:00,56.3,52.2,30.06,North,0,0.0,0.0,86,0.00,,,0.00,WUHU216HW,2013-07-30 14:51:00,
2013-07-30 07:56:00,56.5,52.4,30.06,North,0,0.0,0.0,86,0.00,,,0.00,WUHU216HW,2013-07-30 14:56:00,
2013-07-30 08:01:00,56.7,52.6,30.07,North,0,0.0,0.0,86,0.00,,,0.00,WUHU216HW,2013-07-30 15:01:00,
2013-07-30 08:06:00,56.7,52.6,30.07,North,0,0.0,0.0,86,0.00,,,0.00,WUHU216HW,2013-07-30 15:06:00,
2013-07-30 08:11:00,56.9,52.8,30.07,North,0,0.0,0.0,86,0.00,,,0.00,WUHU216HW,2013-07-30 15:11:00,
2013-07-30 08:16:00,56.9,52.8,30.07,North,0,0.0,0.0,86,0.00,,,0.00,WUHU216HW,2013-07-30 15:16:00,
2013-07-30 08:22:00,56.9,52.8,30.06,North,0,0.0,0.0,86,0.00,,,0.00,WUHU216HW,2013-07-30 15:22:00,
2013-07-30 08:27:00,56.9,52.8,30.07,North,0,0.0,0.0,86,0.00,,,0.00,WUHU216HW,2013-07-30 15:27:00,
2013-07-30 08:32:00,57.1,52.9,30.07,North,0,0.0,0.0,86,0.00,,,0.00,WUHU216HW,2013-07-30 15:32:00,
2013-07-30 08:37:00,57.1,52.9,30.07,North,0,0.0,0.0,86,0.00,,,0.00,WUHU216HW,2013-07-30 15:37:00,
2013-07-30 08:42:00,57.2,53.1,30.07,North,0,0.0,0.0,86,0.00,,,0.00,WUHU216HW,2013-07-30 15:42:00,
2013-07-30 08:47:00,57.4,53.9,30.07,North,0,0.0,0.0,88,0.00,,,0.00,WUHU216HW,2013-07-30 15:47:00,
2013-07-30 08:52:00,57.4,53.6,30.07,North,0,0.0,0.0,87,0.00,,,0.00,WUHU216HW,2013-07-30 15:52:00,
2013-07-30 08:57:00,57.2,53.1,30.07,North,0,0.0,0.0,86,0.00,,,0.00,WUHU216HW,2013-07-30 15:57:00,
2013-07-30 09:02:00,57.2,53.7,30.07,North,0,0.0,0.0,88,0.00,,,0.00,WUHU216HW,2013-07-30 16:02:00,
2013-07-30 09:07:00,57.2,53.7,30.07,North,0,0.0,0.0,88,0.00,,,0.00,WUHU216HW,2013-07-30 16:07:00,
2013-07-30 09:12:00,57.4,53.9,30.07,North,0,0.0,0.0,88,0.00,,,0.00,WUHU216HW,2013-07-30 16:12:00,
2013-07-30 09:17:00,57.4,53.6,30.07,North,0,0.0,0.0,87,0.00,,,0.00,WUHU216HW,2013-07-30 16:17:00,
2013-07-30 09:22:00,57.8,54.3,30.07,North,0,0.0,0.0,88,0.00,,,0.00,WUHU216HW,2013-07-30 16:22:00,
2013-07-30 09:27:00,58.1,54.3,30.07,North,0,0.0,0.0,87,0.00,,,0.00,WUHU216HW,2013-07-30 16:27:00,
2013-07-30 09:32:00,58.7,54.8,30.07,North,0,0.0,0.0,87,0.00,,,0.00,WUHU216HW,2013-07-30 16:32:00,
2013-07-30 09:37:00,59.2,55.1,30.07,North,0,0.0,0.0,86,0.00,,,0.00,WUHU216HW,2013-07-30 16:37:00,
2013-07-30 09:42:00,59.6,55.1,30.07,North,0,0.0,0.0,85,0.00,,,0.00,WUHU216HW,2013-07-30 16:42:00,
2013-07-30 09:47:00,59.9,55.1,30.07,North,0,0.0,0.0,84,0.00,,,0.00,WUHU216HW,2013-07-30 16:47:00,
2013-07-30 09:52:00,60.1,55.3,30.07,North,0,0.0,0.0,84,0.00,,,0.00,WUHU216HW,2013-07-30 16:52:00,
2013-07-30 09:57:00,60.1,55.0,30.07,North,0,0.0,0.0,83,0.00,,,0.00,WUHU216HW,2013-07-30 16:57:00,
2013-07-30 10:02:00,59.9,54.8,30.07,North,0,0.0,0.0,83,0.00,,,0.00,WUHU216HW,2013-07-30 17:02:00,
2013-07-30 10:07:00,60.1,54.6,30.07,North,0,0.0,0.0,82,0.00,,,0.00,WUHU216HW,2013-07-30 17:07:00,
2013-07-30 10:12:00,60.1,54.6,30.07,North,0,0.0,0.0,82,0.00,,,0.00,WUHU216HW,2013-07-30 17:12:00,
2013-07-30 10:17:00,60.5,55.0,30.07,North,0,0.0,0.0,82,0.00,,,0.00,WUHU216HW,2013-07-30 17:17:00,
2013-07-30 10:22:00,60.8,55.1,30.07,North,0,0.0,0.0,81,0.00,,,0.00,WUHU216HW,2013-07-30 17:22:00,
2013-07-30 10:27:00,61.2,55.1,30.07,North,0,0.0,0.0,80,0.00,,,0.00,WUHU216HW,2013-07-30 17:27:00,
2013-07-30 10:32:00,61.6,55.0,30.07,North,0,0.0,0.0,79,0.00,,,0.00,WUHU216HW,2013-07-30 17:32:00,
2013-07-30 10:37:00,61.9,55.7,30.07,North,0,0.0,0.0,80,0.00,,,0.00,WUHU216HW,2013-07-30 17:37:00,
2013-07-30 10:42:00,62.3,55.6,30.07,North,0,0.0,0.0,79,0.00,,,0.00,WUHU216HW,2013-07-30 17:42:00,
2013-07-30 10:47:00,62.3,55.3,30.07,North,0,0.0,0.0,78,0.00,,,0.00,WUHU216HW,2013-07-30 17:47:00,
2013-07-30 10:52:00,62.6,55.6,30.07,North,0,0.0,0.0,78,0.00,,,0.00,WUHU216HW,2013-07-30 17:52:00,
2013-07-30 10:57:00,63.0,56.0,30.07,North,0,0.0,0.0,78,0.00,,,0.00,WUHU216HW,2013-07-30 17:57:00,
2013-07-30 11:02:00,63.5,56.5,30.08,North,0,0.0,0.0,78,0.00,,,0.00,WUHU216HW,2013-07-30 18:02:00,
2013-07-30 11:07:00,63.7,56.3,30.08,North,0,0.0,0.0,77,0.00,,,0.00,WUHU216HW,2013-07-30 18:07:00,
2013-07-30 11:12:00,64.3,56.9,30.08,North,0,0.0,0.0,77,0.00,,,0.00,WUHU216HW,2013-07-30 18:12:00,
2013-07-30 11:17:00,64.4,56.7,30.08,North,0,0.0,0.0,76,0.00,,,0.00,WUHU216HW,2013-07-30 18:17:00,
2013-07-30 11:22:00,64.8,57.4,30.08,North,0,0.0,0.0,77,0.00,,,0.00,WUHU216HW,2013-07-30 18:22:00,
2013-07-30 11:27:00,65.5,57.0,30.08,North,0,0.0,0.0,74,0.00,,,0.00,WUHU216HW,2013-07-30 18:27:00,
2013-07-30 11:32:00,65.2,55.5,30.08,North,0,0.0,0.0,71,0.00,,,0.00,WUHU216HW,2013-07-30 18:32:00,
2013-07-30 11:33:00,64.8,55.6,30.07,North,0,0.0,0.0,72,0.00,,,0.00,WUHU216HW,2013-07-30 18:33:00,
2013-07-30 11:38:00,64.3,55.8,30.07,North,0,0.0,0.0,74,0.00,,,0.00,WUHU216HW,2013-07-30 18:38:00,
2013-07-30 11:43:00,64.6,56.5,30.07,North,0,0.0,0.0,75,0.00,,,0.00,WUHU216HW,2013-07-30 18:43:00,
2013-07-30 11:48:00,64.8,56.4,30.07,North,0,0.0,0.0,74,0.00,,,0.00,WUHU216HW,2013-07-30 18:48:00,
2013-07-30 11:53:00,65.3,57.2,30.08,North,0,0.0,0.0,75,0.00,,,0.00,WUHU216HW,2013-07-30 18:53:00,
2013-07-30 11:58:00,65.7,56.8,30.08,North,0,0.0,0.0,73,0.00,,,0.00,WUHU216HW,2013-07-30 18:58:00,
2013-07-30 12:03:00,65.5,56.6,30.08,North,0,0.0,0.0,73,0.00,,,0.00,WUHU216HW,2013-07-30 19:03:00,
2013-07-30 12:08:00,65.5,56.3,30.08,North,0,0.0,0.0,72,0.00,,,0.00,WUHU216HW,2013-07-30 19:08:00,
2013-07-30 12:13:00,65.9,56.3,30.08,North,0,0.0,0.0,71,0.00,,,0.00,WUHU216HW,2013-07-30 19:13:00,
2013-07-30 12:18:00,65.7,56.4,30.08,North,0,0.0,0.0,72,0.00,,,0.00,WUHU216HW,2013-07-30 19:18:00,
2013-07-30 12:23:00,65.9,56.3,30.08,North,0,0.0,0.0,71,0.00,,,0.00,WUHU216HW,2013-07-30 19:23:00,
2013-07-30 12:28:00,66.4,57.1,30.08,North,0,0.0,0.0,72,0.00,,,0.00,WUHU216HW,2013-07-30 19:28:00,
2013-07-30 12:33:00,67.0,56.9,30.08,North,0,0.0,0.0,70,0.00,,,0.00,WUHU216HW,2013-07-30 19:33:00,
2013-07-30 12:38:00,66.8,56.7,30.08,North,0,0.0,0.0,70,0.00,,,0.00,WUHU216HW,2013-07-30 19:38:00,
2013-07-30 12:43:00,66.8,57.1,30.07,North,0,0.0,0.0,71,0.00,,,0.00,WUHU216HW,2013-07-30 19:43:00,
2013-07-30 12:48:00,66.8,57.1,30.07,North,0,0.0,0.0,71,0.00,,,0.00,WUHU216HW,2013-07-30 19:48:00,
2013-07-30 12:53:00,67.3,58.0,30.07,North,0,0.0,0.0,72,0.00,,,0.00,WUHU216HW,2013-07-30 19:53:00,
2013-07-30 12:58:00,67.9,57.8,30.07,North,0,0.0,0.0,70,0.00,,,0.00,WUHU216HW,2013-07-30 19:58:00,
2013-07-30 13:03:00,68.4,58.3,30.07,North,0,0.0,0.0,70,0.00,,,0.00,WUHU216HW,2013-07-30 20:03:00,
2013-07-30 13:08:00,68.6,57.6,30.07,North,0,0.0,0.0,68,0.00,,,0.00,WUHU216HW,2013-07-30 20:08:00,
2013-07-30 13:13:00,68.6,58.4,30.07,North,0,0.0,0.0,70,0.00,,,0.00,WUHU216HW,2013-07-30 20:13:00,
2013-07-30 13:18:00,69.1,57.7,30.07,North,0,0.0,0.0,67,0.00,,,0.00,WUHU216HW,2013-07-30 20:18:00,
2013-07-30 13:23:00,69.5,57.2,30.07,North,0,0.0,0.0,65,0.00,,,0.00,WUHU216HW,2013-07-30 20:23:00,
2013-07-30 13:28:00,69.5,58.0,30.07,North,0,0.0,0.0,67,0.00,,,0.00,WUHU216HW,2013-07-30 20:28:00,
2013-07-30 13:33:00,69.7,58.6,30.07,North,0,0.0,0.0,68,0.00,,,0.00,WUHU216HW,2013-07-30 20:33:00,
2013-07-30 13:38:00,69.8,58.3,30.07,North,0,0.0,0.0,67,0.00,,,0.00,WUHU216HW,2013-07-30 20:38:00,
2013-07-30 13:43:00,70.0,58.2,30.07,North,0,0.0,0.0,66,0.00,,,0.00,WUHU216HW,2013-07-30 20:43:00,
2013-07-30 13:48:00,70.2,58.7,30.07,North,0,0.0,0.0,67,0.00,,,0.00,WUHU216HW,2013-07-30 20:48:00,
2013-07-30 13:53:00,70.4,57.2,30.07,North,0,0.0,0.0,63,0.00,,,0.00,WUHU216HW,2013-07-30 20:53:00,
2013-07-30 13:58:00,70.0,57.7,30.07,North,0,0.0,0.0,65,0.00,,,0.00,WUHU216HW,2013-07-30 20:58:00,
2013-07-30 14:03:00,70.4,58.9,30.07,North,0,0.0,0.0,67,0.00,,,0.00,WUHU216HW,2013-07-30 21:03:00,
2013-07-30 14:08:00,70.9,59.4,30.06,North,0,0.0,0.0,67,0.00,,,0.00,WUHU216HW,2013-07-30 21:08:00,
2013-07-30 14:13:00,71.5,59.5,30.06,North,0,0.0,0.0,66,0.00,,,0.00,WUHU216HW,2013-07-30 21:13:00,
2013-07-30 14:18:00,71.6,59.2,30.06,North,0,0.0,0.0,65,0.00,,,0.00,WUHU216HW,2013-07-30 21:18:00,
2013-07-30 14:23:00,71.6,59.7,30.06,North,0,0.0,0.0,66,0.00,,,0.00,WUHU216HW,2013-07-30 21:23:00,
2013-07-30 14:28:00,72.2,60.2,30.06,North,0,0.0,0.0,66,0.00,,,0.00,WUHU216HW,2013-07-30 21:28:00,
2013-07-30 14:33:00,72.4,60.0,30.06,North,0,0.0,0.0,65,0.00,,,0.00,WUHU216HW,2013-07-30 21:33:00,
2013-07-30 14:38:00,72.7,59.4,30.06,North,0,0.0,0.0,63,0.00,,,0.00,WUHU216HW,2013-07-30 21:38:00,
2013-07-30 14:43:00,73.1,59.2,30.06,North,0,0.0,0.0,62,0.00,,,0.00,WUHU216HW,2013-07-30 21:43:00,
2013-07-30 14:48:00,72.9,59.9,30.06,North,0,0.0,0.0,64,0.00,,,0.00,WUHU216HW,2013-07-30 21:48:00,
2013-07-30 14:53:00,73.3,60.8,30.05,North,0,0.0,0.0,65,0.00,,,0.00,WUHU216HW,2013-07-30 21:53:00,
2013-07-30 14:58:00,73.6,60.7,30.05,North,0,0.0,0.0,64,0.00,,,0.00,WUHU216HW,2013-07-30 21:58:00,
2013-07-30 15:03:00,73.8,60.4,30.05,North,0,0.0,0.0,63,0.00,,,0.00,WUHU216HW,2013-07-30 22:03:00,
2013-07-30 15:08:00,74.0,60.1,30.05,North,0,0.0,0.0,62,0.00,,,0.00,WUHU216HW,2013-07-30 22:08:00,
2013-07-30 15:13:00,74.2,59.4,30.05,North,0,0.0,0.0,60,0.00,,,0.00,WUHU216HW,2013-07-30 22:13:00,
2013-07-30 15:18:00,74.5,60.7,30.05,North,0,0.0,0.0,62,0.00,,,0.00,WUHU216HW,2013-07-30 22:18:00,
2013-07-30 15:23:00,74.5,59.2,30.05,North,0,0.0,0.0,59,0.00,,,0.00,WUHU216HW,2013-07-30 22:23:00,
2013-07-30 15:28:00,74.9,60.1,30.05,North,0,0.0,0.0,60,0.00,,,0.00,WUHU216HW,2013-07-30 22:28:00,
2013-07-30 15:33:00,75.2,61.4,30.04,North,0,0.0,0.0,62,0.00,,,0.00,WUHU216HW,2013-07-30 22:33:00,
2013-07-30 15:38:00,75.2,58.5,30.04,North,0,0.0,0.0,56,0.00,,,0.00,WUHU216HW,2013-07-30 22:38:00,
2013-07-30 15:43:00,75.2,60.5,30.04,North,0,0.0,0.0,60,0.00,,,0.00,WUHU216HW,2013-07-30 22:43:00,
2013-07-30 15:48:00,75.6,59.8,30.04,North,0,0.0,0.0,58,0.00,,,0.00,WUHU216HW,2013-07-30 22:48:00,
2013-07-30 15:53:00,76.0,60.7,30.04,North,0,0.0,0.0,59,0.00,,,0.00,WUHU216HW,2013-07-30 22:53:00,
2013-07-30 15:58:00,76.3,61.5,30.03,North,0,0.0,0.0,60,0.00,,,0.00,WUHU216HW,2013-07-30 22:58:00,
2013-07-30 16:03:00,77.0,61.6,30.04,North,0,0.0,0.0,59,0.00,,,0.00,WUHU216HW,2013-07-30 23:03:00,
2013-07-30 16:08:00,77.6,61.7,30.04,North,0,0.0,0.0,58,0.00,,,0.00,WUHU216HW,2013-07-30 23:08:00,
2013-07-30 16:13:00,77.8,61.8,30.04,North,0,0.0,0.0,58,0.00,,,0.00,WUHU216HW,2013-07-30 23:13:00,
2013-07-30 16:18:00,77.9,60.5,30.04,North,0,0.0,0.0,55,0.00,,,0.00,WUHU216HW,2013-07-30 23:18:00,
2013-07-30 16:23:00,78.1,62.2,30.03,North,0,0.0,0.0,58,0.00,,,0.00,WUHU216HW,2013-07-30 23:23:00,
2013-07-30 16:28:00,78.5,62.0,30.03,North,0,0.0,0.0,57,0.00,,,0.00,WUHU216HW,2013-07-30 23:28:00,
2013-07-30 16:33:00,78.7,60.6,30.03,North,0,0.0,0.0,54,0.00,,,0.00,WUHU216HW,2013-07-30 23:33:00,
2013-07-30 16:38:00,79.0,61.5,30.03,North,0,0.0,0.0,55,0.00,,,0.00,WUHU216HW,2013-07-30 23:38:00,
2013-07-30 16:43:00,79.2,62.1,30.03,North,0,0.0,0.0,56,0.00,,,0.00,WUHU216HW,2013-07-30 23:43:00,
2013-07-30 16:48:00,79.4,62.3,30.04,North,0,0.0,0.0,56,0.00,,,0.00,WUHU216HW,2013-07-30 23:48:00,
2013-07-30 16:53:00,79.4,61.3,30.04,North,0,0.0,0.0,54,0.00,,,0.00,WUHU216HW,2013-07-30 23:53:00,
2013-07-30 16:55:00,79.6,61.9,30.04,North,0,0.0,0.0,55,0.00,,,0.00,WUHU216HW,2013-07-30 23:55:00,
2013-07-30 17:01:00,79.7,61.0,30.03,North,0,0.0,0.0,53,0.00,,,0.00,WUHU216HW,2013-07-31 00:01:00,
2013-07-30 17:07:00,80.1,60.3,30.03,North,0,0.0,0.0,51,0.00,,,0.00,WUHU216HW,2013-07-31 00:07:00,
2013-07-30 17:13:00,80.3,61.6,30.03,North,0,0.0,0.0,53,0.00,,,0.00,WUHU216HW,2013-07-31 00:13:00,
2013-07-30 17:19:00,79.7,58.9,30.03,North,0,0.0,0.0,49,0.00,,,0.00,WUHU216HW,2013-07-31 00:19:00,
2013-07-30 17:25:00,79.6,60.4,30.03,North,0,0.0,0.0,52,0.00,,,0.00,WUHU216HW,2013-07-31 00:25:00,
2013-07-30 17:31:00,79.6,60.4,30.03,North,0,0.0,0.0,52,0.00,,,0.00,WUHU216HW,2013-07-31 00:31:00,
2013-07-30 17:37:00,79.6,59.3,30.03,North,0,0.0,0.0,50,0.00,,,0.00,WUHU216HW,2013-07-31 00:37:00,
2013-07-30 17:43:00,79.2,60.0,30.03,North,0,0.0,0.0,52,0.00,,,0.00,WUHU216HW,2013-07-31 00:43:00,
2013-07-30 17:49:00,79.0,59.9,30.03,North,0,0.0,0.0,52,0.00,,,0.00,WUHU216HW,2013-07-31 00:49:00,
2013-07-30 17:55:00,79.0,59.4,30.03,North,0,0.0,0.0,51,0.00,,,0.00,WUHU216HW,2013-07-31 00:55:00,
2013-07-30 18:00:00,78.8,59.8,30.03,North,0,0.0,0.0,52,0.00,,,0.00,WUHU216HW,2013-07-31 01:00:00,
2013-07-30 18:05:00,78.7,59.6,30.03,North,0,0.0,0.0,52,0.00,,,0.00,WUHU216HW,2013-07-31 01:05:00,
2013-07-30 18:11:00,77.9,59.4,30.03,North,0,0.0,0.0,53,0.00,,,0.00,WUHU216HW,2013-07-31 01:11:00,
2013-07-30 18:16:00,77.4,59.4,30.02,North,0,0.0,0.0,54,0.00,,,0.00,WUHU216HW,2013-07-31 01:16:00,
2013-07-30 18:21:00,77.0,59.6,30.03,North,0,0.0,0.0,55,0.00,,,0.00,WUHU216HW,2013-07-31 01:21:00,
2013-07-30 18:26:00,76.5,59.6,30.03,North,0,0.0,0.0,56,0.00,,,0.00,WUHU216HW,2013-07-31 01:26:00,
2013-07-30 18:31:00,76.0,59.6,30.03,North,0,0.0,0.0,57,0.00,,,0.00,WUHU216HW,2013-07-31 01:31:00,
2013-07-30 18:36:00,75.8,59.9,30.03,North,0,0.0,0.0,58,0.00,,,0.00,WUHU216HW,2013-07-31 01:36:00,
2013-07-30 18:47:00,74.7,59.4,30.03,North,0,0.0,0.0,59,0.00,,,0.00,WUHU216HW,2013-07-31 01:47:00,
2013-07-30 18:52:00,74.0,59.2,30.02,North,0,0.0,0.0,60,0.00,,,0.00,WUHU216HW,2013-07-31 01:52:00,
2013-07-30 18:57:00,73.8,59.5,30.02,North,0,0.0,0.0,61,0.00,,,0.00,WUHU216HW,2013-07-31 01:57:00,
2013-07-30 19:02:00,73.6,59.3,30.02,North,0,0.0,0.0,61,0.00,,,0.00,WUHU216HW,2013-07-31 02:02:00,
2013-07-30 19:07:00,73.4,59.6,30.02,North,0,0.0,0.0,62,0.00,,,0.00,WUHU216HW,2013-07-31 02:07:00,
2013-07-30 19:12:00,73.4,59.6,30.03,North,0,0.0,0.0,62,0.00,,,0.00,WUHU216HW,2013-07-31 02:12:00,
2013-07-30 19:17:00,73.1,59.2,30.03,North,0,0.0,0.0,62,0.00,,,0.00,WUHU216HW,2013-07-31 02:17:00,
2013-07-30 19:22:00,72.7,59.4,30.03,North,0,0.0,0.0,63,0.00,,,0.00,WUHU216HW,2013-07-31 02:22:00,
2013-07-30 19:27:00,72.4,59.1,30.03,North,0,0.0,0.0,63,0.00,,,0.00,WUHU216HW,2013-07-31 02:27:00,
2013-07-30 19:32:00,71.8,59.0,30.03,North,0,0.0,0.0,64,0.00,,,0.00,WUHU216HW,2013-07-31 02:32:00,
2013-07-30 19:37:00,71.5,59.0,30.03,North,0,0.0,0.0,65,0.00,,,0.00,WUHU216HW,2013-07-31 02:37:00,
2013-07-30 19:42:00,71.1,58.7,30.03,North,0,0.0,0.0,65,0.00,,,0.00,WUHU216HW,2013-07-31 02:42:00,
2013-07-30 19:47:00,70.9,58.2,30.03,North,0,0.0,0.0,64,0.00,,,0.00,WUHU216HW,2013-07-31 02:47:00,
2013-07-30 19:52:00,70.7,58.3,30.03,North,0,0.0,0.0,65,0.00,,,0.00,WUHU216HW,2013-07-31 02:52:00,
2013-07-30 19:57:00,70.6,58.2,30.03,North,0,0.0,0.0,65,0.00,,,0.00,WUHU216HW,2013-07-31 02:57:00,
2013-07-30 20:02:00,70.0,57.7,30.03,North,0,0.0,0.0,65,0.00,,,0.00,WUHU216HW,2013-07-31 03:02:00,
2013-07-30 20:07:00,69.8,58.0,30.04,North,0,0.0,0.0,66,0.00,,,0.00,WUHU216HW,2013-07-31 03:07:00,
2013-07-30 20:12:00,69.5,58.0,30.04,North,0,0.0,0.0,67,0.00,,,0.00,WUHU216HW,2013-07-31 03:12:00,
2013-07-30 20:17:00,69.1,57.7,30.04,North,0,0.0,0.0,67,0.00,,,0.00,WUHU216HW,2013-07-31 03:17:00,
2013-07-30 20:22:00,68.6,57.6,30.04,North,0,0.0,0.0,68,0.00,,,0.00,WUHU216HW,2013-07-31 03:22:00,
2013-07-30 20:27:00,68.0,57.5,30.04,North,0,0.0,0.0,69,0.00,,,0.00,WUHU216HW,2013-07-31 03:27:00,
2013-07-30 20:32:00,67.9,57.8,30.04,North,0,0.0,0.0,70,0.00,,,0.00,WUHU216HW,2013-07-31 03:32:00,
2013-07-30 20:37:00,67.5,57.4,30.04,North,0,0.0,0.0,70,0.00,,,0.00,WUHU216HW,2013-07-31 03:37:00,
2013-07-30 20:42:00,67.3,57.2,30.04,North,0,0.0,0.0,70,0.00,,,0.00,WUHU216HW,2013-07-31 03:42:00,
2013-07-30 20:47:00,67.0,56.9,30.04,North,0,0.0,0.0,70,0.00,,,0.00,WUHU216HW,2013-07-31 03:47:00,
2013-07-30 20:52:00,66.4,57.1,30.04,North,0,0.0,0.0,72,0.00,,,0.00,WUHU216HW,2013-07-31 03:52:00,
2013-07-30 20:57:00,66.1,56.3,30.04,North,0,0.0,0.0,71,0.00,,,0.00,WUHU216HW,2013-07-31 03:57:00,
2013-07-30 21:01:00,65.9,56.3,30.04,North,0,0.0,0.0,71,0.00,,,0.00,WUHU216HW,2013-07-31 04:01:00,
2013-07-30 21:02:00,65.9,56.3,30.04,North,0,0.0,0.0,71,0.00,,,0.00,WUHU216HW,2013-07-31 04:02:00,
2013-07-30 21:07:00,66.1,56.8,30.05,North,0,0.0,0.0,72,0.00,,,0.00,WUHU216HW,2013-07-31 04:07:00,
2013-07-30 21:12:00,65.5,56.3,30.05,North,0,0.0,0.0,72,0.00,,,0.00,WUHU216HW,2013-07-31 04:12:00,
2013-07-30 21:17:00,65.3,56.1,30.05,North,0,0.0,0.0,72,0.00,,,0.00,WUHU216HW,2013-07-31 04:17:00,
2013-07-30 21:22:00,64.8,56.4,30.05,North,0,0.0,0.0,74,0.00,,,0.00,WUHU216HW,2013-07-31 04:22:00,
2013-07-30 21:27:00,64.4,56.0,30.05,North,0,0.0,0.0,74,0.00,,,0.00,WUHU216HW,2013-07-31 04:27:00,
2013-07-30 21:32:00,64.3,55.8,30.05,North,0,0.0,0.0,74,0.00,,,0.00,WUHU216HW,2013-07-31 04:32:00,
2013-07-30 21:37:00,64.1,55.6,30.06,North,0,0.0,0.0,74,0.00,,,0.00,WUHU216HW,2013-07-31 04:37:00,
2013-07-30 21:42:00,63.9,55.8,30.06,North,0,0.0,0.0,75,0.00,,,0.00,WUHU216HW,2013-07-31 04:42:00,
2013-07-30 21:47:00,63.5,55.4,30.06,North,0,0.0,0.0,75,0.00,,,0.00,WUHU216HW,2013-07-31 04:47:00,
2013-07-30 21:52:00,63.2,55.1,30.06,North,0,0.0,0.0,75,0.00,,,0.00,WUHU216HW,2013-07-31 04:52:00,
2013-07-30 21:57:00,63.0,55.3,30.06,North,0,0.0,0.0,76,0.00,,,0.00,WUHU216HW,2013-07-31 04:57:00,
2013-07-30 22:02:00,62.8,55.1,30.06,North,0,0.0,0.0,76,0.00,,,0.00,WUHU216HW,2013-07-31 05:02:00,
2013-07-30 22:07:00,63.0,55.3,30.06,North,0,0.0,0.0,76,0.00,,,0.00,WUHU216HW,2013-07-31 05:07:00,
2013-07-30 22:12:00,62.6,54.5,30.06,North,0,0.0,0.0,75,0.00,,,0.00,WUHU216HW,2013-07-31 05:12:00,
2013-07-30 22:17:00,62.5,54.7,30.06,North,0,0.0,0.0,76,0.00,,,0.00,WUHU216HW,2013-07-31 05:17:00,
2013-07-30 22:22:00,62.3,54.5,30.06,North,0,0.0,0.0,76,0.00,,,0.00,WUHU216HW,2013-07-31 05:22:00,
2013-07-30 22:27:00,62.3,54.5,30.06,North,0,0.0,0.0,76,0.00,,,0.00,WUHU216HW,2013-07-31 05:27:00,
2013-07-30 22:32:00,62.1,54.5,30.06,North,0,0.0,0.0,76,0.00,,,0.00,WUHU216HW,2013-07-31 05:32:00,
2013-07-30 22:37:00,61.9,54.3,30.06,North,0,0.0,0.0,76,0.00,,,0.00,WUHU216HW,2013-07-31 05:37:00,
2013-07-30 22:42:00,61.7,54.5,30.06,North,0,0.0,0.0,77,0.00,,,0.00,WUHU216HW,2013-07-31 05:42:00,
2013-07-30 22:47:00,61.4,54.1,30.06,North,0,0.0,0.0,77,0.00,,,0.00,WUHU216HW,2013-07-31 05:47:00,
2013-07-30 22:52:00,61.2,54.0,30.06,North,0,0.0,0.0,77,0.00,,,0.00,WUHU216HW,2013-07-31 05:52:00,
2013-07-30 22:57:00,61.0,54.2,30.06,North,0,0.0,0.0,78,0.00,,,0.00,WUHU216HW,2013-07-31 05:57:00,
2013-07-30 23:02:00,60.8,54.0,30.06,North,0,0.0,0.0,78,0.00,,,0.00,WUHU216HW,2013-07-31 06:02:00,
2013-07-30 23:07:00,60.7,54.2,30.06,North,0,0.0,0.0,79,0.00,,,0.00,WUHU216HW,2013-07-31 06:07:00,
2013-07-30 23:12:00,60.5,54.0,30.06,North,0,0.0,0.0,79,0.00,,,0.00,WUHU216HW,2013-07-31 06:12:00,
2013-07-30 23:17:00,60.5,54.0,30.06,North,0,0.0,0.0,79,0.00,,,0.00,WUHU216HW,2013-07-31 06:17:00,
2013-07-30 23:22:00,60.1,53.6,30.06,North,0,0.0,0.0,79,0.00,,,0.00,WUHU216HW,2013-07-31 06:22:00,
2013-07-30 23:27:00,60.3,53.8,30.06,North,0,0.0,0.0,79,0.00,,,0.00,WUHU216HW,2013-07-31 06:27:00,
2013-07-30 23:32:00,60.1,53.6,30.06,North,0,0.0,0.0,79,0.00,,,0.00,WUHU216HW,2013-07-31 06:32:00,
2013-07-30 23:37:00,60.1,53.6,30.06,North,0,0.0,0.0,79,0.00,,,0.00,WUHU216HW,2013-07-31 06:37:00,
2013-07-30 23:42:00,60.1,53.6,30.06,North,0,0.0,0.0,79,0.00,,,0.00,WUHU216HW,2013-07-31 06:42:00,
2013-07-30 23:47:00,59.9,53.8,30.06,North,0,0.0,0.0,80,0.00,,,0.00,WUHU216HW,2013-07-31 06:47:00,
2013-07-30 23:52:00,59.6,53.8,30.06,North,0,0.0,0.0,81,0.00,,,0.00,WUHU216HW,2013-07-31 06:52:00,
2013-07-30 23:57:00,59.2,53.1,30.06,North,0,0.0,0.0,80,0.00,,,0.00,WUHU216HW,2013-07-31 06:57:00,